EZY21RN EGPH-EGSS
Flight info
| Callsign | EZY21RN |
|---|---|
| Flight time | 1h 8m |
| Altitude | 33000 |
| Route | GOSAM P600 FENIK L612 NAVSO DCT AKOMU DCT VAMEB UL612 LISTO |
| Aircraft | A320/M-SDE3FGHIRWY/LB1 |
Departure
| Time | 2026-04-22 18:02 |
|---|---|
| Airport | Edinburgh Airport (EGPH) |
Arrival
| Time | 2026-04-22 19:10 |
|---|---|
| Airport | London Stansted Airport (EGSS) |
| Time | Latitude | Longitude | Altitude | Speed | Heading |
|---|---|---|---|---|---|
| 2026-04-22 17:45 | 55.94939 | -3.35985 | 116 ft | 0 kts | 254° |
| 2026-04-22 17:49 | 55.94940 | -3.35979 | 116 ft | 3 kts | 254° |
| 2026-04-22 17:50 | 55.94946 | -3.35934 | 112 ft | 3 kts | 255° |
| 2026-04-22 17:50 | 55.94951 | -3.35897 | 112 ft | 4 kts | 274° |
| 2026-04-22 17:50 | 55.94943 | -3.35855 | 113 ft | 4 kts | 315° |
| 2026-04-22 17:50 | 55.94938 | -3.35847 | 112 ft | 0 kts | 321° |
| 2026-04-22 17:54 | 55.94963 | -3.35866 | 116 ft | 8 kts | 345° |
| 2026-04-22 17:55 | 55.95005 | -3.35839 | 114 ft | 12 kts | 30° |
| 2026-04-22 17:55 | 55.95109 | -3.35839 | 114 ft | 14 kts | 301° |
| 2026-04-22 17:55 | 55.95170 | -3.35953 | 114 ft | 12 kts | 332° |
| 2026-04-22 17:55 | 55.95202 | -3.36066 | 114 ft | 12 kts | 252° |
| 2026-04-22 17:56 | 55.95154 | -3.36209 | 116 ft | 13 kts | 239° |
| 2026-04-22 17:56 | 55.95107 | -3.36345 | 116 ft | 12 kts | 238° |
| 2026-04-22 17:56 | 55.95065 | -3.36471 | 116 ft | 11 kts | 240° |
| 2026-04-22 17:56 | 55.95051 | -3.36516 | 114 ft | 0 kts | 240° |
| 2026-04-22 17:57 | 55.95051 | -3.36517 | 114 ft | 1 kts | 240° |
| 2026-04-22 17:57 | 55.95046 | -3.36532 | 113 ft | 4 kts | 240° |
| 2026-04-22 17:58 | 55.95021 | -3.36611 | 114 ft | 11 kts | 240° |
| 2026-04-22 17:58 | 55.94973 | -3.36755 | 115 ft | 16 kts | 239° |
| 2026-04-22 17:58 | 55.94906 | -3.36954 | 114 ft | 21 kts | 238° |
| 2026-04-22 17:58 | 55.94819 | -3.37207 | 113 ft | 27 kts | 238° |
| 2026-04-22 17:59 | 55.94713 | -3.37518 | 115 ft | 32 kts | 238° |
| 2026-04-22 17:59 | 55.94591 | -3.37874 | 113 ft | 35 kts | 238° |
| 2026-04-22 17:59 | 55.94464 | -3.38243 | 113 ft | 31 kts | 239° |
| 2026-04-22 17:59 | 55.94388 | -3.38477 | 113 ft | 10 kts | 239° |
| 2026-04-22 18:00 | 55.94373 | -3.38519 | 114 ft | 3 kts | 239° |
| 2026-04-22 18:00 | 55.94349 | -3.38591 | 113 ft | 12 kts | 238° |
| 2026-04-22 18:00 | 55.94305 | -3.38717 | 114 ft | 12 kts | 238° |
| 2026-04-22 18:00 | 55.94284 | -3.38842 | 116 ft | 10 kts | 286° |
| 2026-04-22 18:01 | 55.94337 | -3.38924 | 115 ft | 13 kts | 327° |
| 2026-04-22 18:01 | 55.94427 | -3.38937 | 113 ft | 15 kts | 41° |
| 2026-04-22 18:01 | 55.94487 | -3.38764 | 113 ft | 24 kts | 58° |
| 2026-04-22 18:01 | 55.94713 | -3.38100 | 113 ft | 98 kts | 59° |
| 2026-04-22 18:02 | 55.95172 | -3.36742 | 120 ft | 153 kts | 60° |
| 2026-04-22 18:02 | 55.95730 | -3.35103 | 789 ft | 156 kts | 59° |
| 2026-04-22 18:02 | 55.96324 | -3.33444 | 1594 ft | 160 kts | 60° |
| 2026-04-22 18:02 | 55.97075 | -3.31855 | 2153 ft | 180 kts | 45° |
| 2026-04-22 18:03 | 55.98084 | -3.30304 | 2600 ft | 202 kts | 43° |
| 2026-04-22 18:03 | 55.99234 | -3.28666 | 3100 ft | 223 kts | 36° |
| 2026-04-22 18:03 | 56.00804 | -3.27829 | 3628 ft | 257 kts | 0° |
| 2026-04-22 18:03 | 56.02526 | -3.28950 | 4382 ft | 276 kts | 322° |
| 2026-04-22 18:04 | 56.03654 | -3.31727 | 5286 ft | 283 kts | 287° |
| 2026-04-22 18:04 | 56.03847 | -3.35220 | 5817 ft | 283 kts | 259° |
| 2026-04-22 18:04 | 56.03382 | -3.38583 | 6060 ft | 274 kts | 246° |
| 2026-04-22 18:04 | 56.02693 | -3.41768 | 6458 ft | 282 kts | 244° |
| 2026-04-22 18:05 | 56.01967 | -3.45029 | 6514 ft | 280 kts | 244° |
| 2026-04-22 18:05 | 56.01308 | -3.48304 | 6516 ft | 280 kts | 248° |
| 2026-04-22 18:05 | 56.00720 | -3.51612 | 6517 ft | 280 kts | 250° |
| 2026-04-22 18:05 | 56.00183 | -3.54963 | 6518 ft | 281 kts | 250° |
| 2026-04-22 18:06 | 55.99680 | -3.58337 | 6516 ft | 281 kts | 251° |
| 2026-04-22 18:06 | 55.99194 | -3.61730 | 6517 ft | 283 kts | 252° |
| 2026-04-22 18:06 | 55.98714 | -3.65123 | 6516 ft | 281 kts | 253° |
| 2026-04-22 18:06 | 55.98236 | -3.68513 | 6517 ft | 281 kts | 253° |
| 2026-04-22 18:07 | 55.97756 | -3.71878 | 6516 ft | 280 kts | 253° |
| 2026-04-22 18:07 | 55.97271 | -3.75250 | 6513 ft | 281 kts | 251° |
| 2026-04-22 18:07 | 55.96783 | -3.78623 | 6514 ft | 281 kts | 251° |
| 2026-04-22 18:07 | 55.96293 | -3.82005 | 6514 ft | 281 kts | 251° |
| 2026-04-22 18:08 | 55.95802 | -3.85384 | 6502 ft | 281 kts | 252° |
| 2026-04-22 18:08 | 55.95310 | -3.88765 | 6504 ft | 281 kts | 252° |
| 2026-04-22 18:08 | 55.94819 | -3.92132 | 6504 ft | 280 kts | 252° |
| 2026-04-22 18:08 | 55.94329 | -3.95491 | 6501 ft | 280 kts | 251° |
| 2026-04-22 18:09 | 55.93710 | -3.98762 | 6506 ft | 278 kts | 242° |
| 2026-04-22 18:09 | 55.92758 | -4.01741 | 6494 ft | 275 kts | 229° |
| 2026-04-22 18:09 | 55.91526 | -4.04300 | 6494 ft | 271 kts | 219° |
| 2026-04-22 18:09 | 55.90064 | -4.06370 | 6494 ft | 267 kts | 208° |
| 2026-04-22 18:10 | 55.88522 | -4.08239 | 6488 ft | 268 kts | 211° |
| 2026-04-22 18:10 | 55.86986 | -4.10117 | 6489 ft | 268 kts | 210° |
| 2026-04-22 18:10 | 55.85452 | -4.11996 | 6490 ft | 267 kts | 209° |
| 2026-04-22 18:10 | 55.83925 | -4.13866 | 6489 ft | 267 kts | 211° |
| 2026-04-22 18:11 | 55.82390 | -4.15741 | 6492 ft | 267 kts | 211° |
| 2026-04-22 18:11 | 55.80852 | -4.17616 | 6490 ft | 268 kts | 210° |
| 2026-04-22 18:11 | 55.79334 | -4.19469 | 6488 ft | 267 kts | 210° |
| 2026-04-22 18:11 | 55.77788 | -4.21361 | 6652 ft | 276 kts | 209° |
| 2026-04-22 18:12 | 55.76218 | -4.23308 | 7716 ft | 272 kts | 212° |
| 2026-04-22 18:12 | 55.74668 | -4.25243 | 8754 ft | 272 kts | 211° |
| 2026-04-22 18:12 | 55.73564 | -4.26383 | 9405 ft | 272 kts | 201° |
| 2026-04-22 18:12 | 55.71130 | -4.27313 | 10619 ft | 271 kts | 178° |
| 2026-04-22 18:13 | 55.69274 | -4.26797 | 11442 ft | 275 kts | 162° |
| 2026-04-22 18:13 | 55.67474 | -4.25291 | 11754 ft | 299 kts | 150° |
| 2026-04-22 18:13 | 55.65591 | -4.23413 | 12021 ft | 323 kts | 150° |
| 2026-04-22 18:13 | 55.63584 | -4.21413 | 12535 ft | 335 kts | 151° |
| 2026-04-22 18:14 | 55.61544 | -4.19390 | 13328 ft | 339 kts | 151° |
| 2026-04-22 18:14 | 55.59459 | -4.17340 | 14034 ft | 345 kts | 151° |
| 2026-04-22 18:14 | 55.57348 | -4.15277 | 14788 ft | 347 kts | 152° |
| 2026-04-22 18:14 | 55.55229 | -4.13214 | 15540 ft | 348 kts | 152° |
| 2026-04-22 18:15 | 55.53096 | -4.11139 | 16218 ft | 352 kts | 152° |
| 2026-04-22 18:15 | 55.50936 | -4.09037 | 16880 ft | 357 kts | 153° |
| 2026-04-22 18:15 | 55.48748 | -4.06911 | 17503 ft | 362 kts | 153° |
| 2026-04-22 18:15 | 55.46527 | -4.04753 | 18066 ft | 368 kts | 152° |
| 2026-04-22 18:16 | 55.44258 | -4.02553 | 18614 ft | 375 kts | 152° |
| 2026-04-22 18:16 | 55.41963 | -4.00325 | 19239 ft | 378 kts | 153° |
| 2026-04-22 18:16 | 55.39650 | -3.98081 | 19835 ft | 381 kts | 153° |
| 2026-04-22 18:16 | 55.37318 | -3.95826 | 20402 ft | 385 kts | 153° |
| 2026-04-22 18:17 | 55.34940 | -3.93530 | 20828 ft | 393 kts | 153° |
| 2026-04-22 18:17 | 55.32530 | -3.91205 | 21360 ft | 398 kts | 153° |
| 2026-04-22 18:17 | 55.30093 | -3.88856 | 21889 ft | 401 kts | 154° |
| 2026-04-22 18:17 | 55.27635 | -3.86492 | 22427 ft | 404 kts | 154° |
| 2026-04-22 18:18 | 55.25150 | -3.84109 | 22862 ft | 410 kts | 153° |
| 2026-04-22 18:18 | 55.22630 | -3.81698 | 23287 ft | 416 kts | 153° |
| 2026-04-22 18:18 | 55.20064 | -3.79319 | 23738 ft | 419 kts | 155° |
| 2026-04-22 18:18 | 55.17446 | -3.77017 | 24181 ft | 422 kts | 156° |
| 2026-04-22 18:19 | 55.14794 | -3.74766 | 24577 ft | 426 kts | 156° |
| 2026-04-22 18:19 | 55.12115 | -3.72525 | 24978 ft | 428 kts | 157° |
| 2026-04-22 18:19 | 55.09418 | -3.70267 | 25347 ft | 431 kts | 156° |
| 2026-04-22 18:19 | 55.06709 | -3.67983 | 25728 ft | 434 kts | 156° |
| 2026-04-22 18:20 | 55.04026 | -3.65703 | 26088 ft | 436 kts | 156° |
| 2026-04-22 18:20 | 55.01289 | -3.63363 | 26455 ft | 439 kts | 157° |
| 2026-04-22 18:20 | 54.98543 | -3.61014 | 26803 ft | 442 kts | 157° |
| 2026-04-22 18:20 | 54.95777 | -3.58648 | 27156 ft | 444 kts | 156° |
| 2026-04-22 18:21 | 54.92998 | -3.56276 | 27510 ft | 446 kts | 157° |
| 2026-04-22 18:21 | 54.90203 | -3.53897 | 27851 ft | 448 kts | 156° |
| 2026-04-22 18:21 | 54.87395 | -3.51516 | 28173 ft | 451 kts | 157° |
| 2026-04-22 18:21 | 54.84565 | -3.49122 | 28491 ft | 453 kts | 157° |
| 2026-04-22 18:22 | 54.81726 | -3.46726 | 28817 ft | 455 kts | 157° |
| 2026-04-22 18:22 | 54.78868 | -3.44321 | 29099 ft | 458 kts | 157° |
| 2026-04-22 18:22 | 54.75997 | -3.41905 | 29387 ft | 460 kts | 157° |
| 2026-04-22 18:22 | 54.73114 | -3.39481 | 29671 ft | 462 kts | 157° |
| 2026-04-22 18:23 | 54.71030 | -3.37733 | 29859 ft | 463 kts | 157° |
| 2026-04-22 18:24 | 54.67606 | -3.34866 | 30150 ft | 465 kts | 158° |
| 2026-04-22 18:24 | 54.61791 | -3.30000 | 30823 ft | 464 kts | 158° |
| 2026-04-22 18:25 | 54.58885 | -3.27571 | 31134 ft | 463 kts | 158° |
| 2026-04-22 18:25 | 54.55991 | -3.25152 | 31437 ft | 463 kts | 158° |
| 2026-04-22 18:25 | 54.53090 | -3.22734 | 31759 ft | 462 kts | 158° |
| 2026-04-22 18:26 | 54.47287 | -3.17920 | 32232 ft | 465 kts | 157° |
| 2026-04-22 18:26 | 54.44368 | -3.15508 | 32484 ft | 466 kts | 158° |
| 2026-04-22 18:26 | 54.41447 | -3.13104 | 32778 ft | 465 kts | 157° |
| 2026-04-22 18:26 | 54.38527 | -3.10701 | 33062 ft | 465 kts | 157° |
| 2026-04-22 18:27 | 54.35612 | -3.08299 | 33343 ft | 465 kts | 157° |
| 2026-04-22 18:27 | 54.32699 | -3.05900 | 33423 ft | 464 kts | 157° |
| 2026-04-22 18:27 | 54.26894 | -3.01118 | 33421 ft | 462 kts | 157° |
| 2026-04-22 18:28 | 54.21090 | -2.96379 | 33431 ft | 462 kts | 158° |
| 2026-04-22 18:28 | 54.15271 | -2.91686 | 33428 ft | 462 kts | 159° |
| 2026-04-22 18:29 | 54.09412 | -2.87356 | 33422 ft | 462 kts | 160° |
| 2026-04-22 18:29 | 54.03478 | -2.83180 | 33414 ft | 461 kts | 161° |
| 2026-04-22 18:30 | 53.94606 | -2.76823 | 33402 ft | 461 kts | 160° |
| 2026-04-22 18:31 | 53.88709 | -2.72530 | 33393 ft | 461 kts | 160° |
| 2026-04-22 18:31 | 53.82806 | -2.68257 | 33403 ft | 461 kts | 160° |
| 2026-04-22 18:32 | 53.76896 | -2.64017 | 33401 ft | 461 kts | 160° |
| 2026-04-22 18:32 | 53.70983 | -2.59795 | 33388 ft | 462 kts | 160° |
| 2026-04-22 18:33 | 53.65067 | -2.55595 | 33374 ft | 463 kts | 160° |
| 2026-04-22 18:33 | 53.59123 | -2.51355 | 33384 ft | 464 kts | 160° |
| 2026-04-22 18:34 | 53.53176 | -2.47118 | 33387 ft | 465 kts | 160° |
| 2026-04-22 18:34 | 53.47214 | -2.42900 | 33381 ft | 465 kts | 160° |
| 2026-04-22 18:35 | 53.41285 | -2.38729 | 33394 ft | 465 kts | 160° |
| 2026-04-22 18:35 | 53.35314 | -2.34543 | 33395 ft | 465 kts | 160° |
| 2026-04-22 18:36 | 53.29342 | -2.30360 | 33403 ft | 465 kts | 160° |
| 2026-04-22 18:36 | 53.23373 | -2.26182 | 33392 ft | 465 kts | 160° |
| 2026-04-22 18:37 | 53.17400 | -2.22020 | 33392 ft | 465 kts | 160° |
| 2026-04-22 18:37 | 53.12641 | -2.17830 | 33390 ft | 469 kts | 147° |
| 2026-04-22 18:38 | 53.06480 | -2.10320 | 33388 ft | 469 kts | 146° |
| 2026-04-22 18:38 | 53.01202 | -2.03920 | 33371 ft | 469 kts | 146° |
| 2026-04-22 18:39 | 52.93313 | -1.94370 | 33359 ft | 471 kts | 145° |
| 2026-04-22 18:39 | 52.88012 | -1.87962 | 33358 ft | 472 kts | 145° |
| 2026-04-22 18:40 | 52.82698 | -1.81575 | 33374 ft | 473 kts | 145° |
| 2026-04-22 18:40 | 52.77372 | -1.75192 | 33376 ft | 473 kts | 146° |
| 2026-04-22 18:41 | 52.71807 | -1.69464 | 33287 ft | 471 kts | 154° |
| 2026-04-22 18:41 | 52.65988 | -1.64470 | 33260 ft | 472 kts | 154° |
| 2026-04-22 18:42 | 52.60146 | -1.59473 | 33240 ft | 473 kts | 154° |
| 2026-04-22 18:42 | 52.54300 | -1.54463 | 33252 ft | 474 kts | 154° |
| 2026-04-22 18:43 | 52.51374 | -1.51959 | 33134 ft | 474 kts | 154° |
| 2026-04-22 18:43 | 52.48444 | -1.49461 | 32055 ft | 479 kts | 154° |
| 2026-04-22 18:43 | 52.45458 | -1.46923 | 30667 ft | 489 kts | 153° |
| 2026-04-22 18:43 | 52.42414 | -1.44343 | 29149 ft | 496 kts | 153° |
| 2026-04-22 18:44 | 52.39339 | -1.41736 | 27797 ft | 497 kts | 153° |
| 2026-04-22 18:44 | 52.36286 | -1.39141 | 26716 ft | 492 kts | 152° |
| 2026-04-22 18:44 | 52.33260 | -1.36570 | 25779 ft | 487 kts | 152° |
| 2026-04-22 18:44 | 52.30274 | -1.34044 | 24904 ft | 481 kts | 152° |
| 2026-04-22 18:45 | 52.27378 | -1.31532 | 24115 ft | 474 kts | 150° |
| 2026-04-22 18:45 | 52.24529 | -1.28914 | 23259 ft | 466 kts | 149° |
| 2026-04-22 18:45 | 52.21743 | -1.26256 | 22357 ft | 462 kts | 148° |
| 2026-04-22 18:45 | 52.19007 | -1.23606 | 21686 ft | 453 kts | 148° |
| 2026-04-22 18:46 | 52.16313 | -1.20999 | 20943 ft | 446 kts | 148° |
| 2026-04-22 18:46 | 52.13669 | -1.18470 | 20546 ft | 433 kts | 148° |
| 2026-04-22 18:46 | 52.11112 | -1.16059 | 20383 ft | 419 kts | 149° |
| 2026-04-22 18:46 | 52.08611 | -1.13724 | 20398 ft | 416 kts | 149° |
| 2026-04-22 18:47 | 52.06086 | -1.11375 | 20397 ft | 415 kts | 149° |
| 2026-04-22 18:47 | 52.03717 | -1.08742 | 20389 ft | 413 kts | 137° |
| 2026-04-22 18:47 | 52.01797 | -1.05300 | 20351 ft | 412 kts | 123° |
| 2026-04-22 18:47 | 52.00456 | -1.01217 | 20351 ft | 410 kts | 109° |
| 2026-04-22 18:48 | 51.99759 | -0.96754 | 20372 ft | 408 kts | 96° |
| 2026-04-22 18:48 | 51.99658 | -0.92182 | 20358 ft | 404 kts | 89° |
| 2026-04-22 18:48 | 51.99667 | -0.87655 | 19749 ft | 402 kts | 90° |
| 2026-04-22 18:48 | 51.99671 | -0.83115 | 18281 ft | 403 kts | 91° |
| 2026-04-22 18:49 | 51.99670 | -0.78595 | 16875 ft | 398 kts | 92° |
| 2026-04-22 18:49 | 51.99667 | -0.75634 | 16052 ft | 393 kts | 91° |
| 2026-04-22 18:49 | 51.99659 | -0.71230 | 14832 ft | 387 kts | 92° |
| 2026-04-22 18:49 | 51.99649 | -0.66902 | 13603 ft | 380 kts | 92° |
| 2026-04-22 18:50 | 51.99641 | -0.62658 | 12564 ft | 369 kts | 92° |
| 2026-04-22 18:50 | 51.99637 | -0.58665 | 12267 ft | 339 kts | 92° |
| 2026-04-22 18:50 | 51.99631 | -0.55004 | 12125 ft | 310 kts | 92° |
| 2026-04-22 18:50 | 51.99623 | -0.51626 | 11847 ft | 290 kts | 92° |
| 2026-04-22 18:51 | 51.99608 | -0.48401 | 11601 ft | 284 kts | 92° |
| 2026-04-22 18:51 | 51.99590 | -0.45206 | 11352 ft | 282 kts | 92° |
| 2026-04-22 18:51 | 51.99574 | -0.42038 | 11107 ft | 280 kts | 93° |
| 2026-04-22 18:51 | 51.99560 | -0.38878 | 10852 ft | 280 kts | 92° |
| 2026-04-22 18:52 | 51.99537 | -0.35725 | 10623 ft | 279 kts | 93° |
| 2026-04-22 18:52 | 51.99503 | -0.32592 | 10383 ft | 277 kts | 94° |
| 2026-04-22 18:52 | 51.99465 | -0.29491 | 10220 ft | 275 kts | 94° |
| 2026-04-22 18:52 | 51.99424 | -0.26382 | 10079 ft | 275 kts | 94° |
| 2026-04-22 18:53 | 51.99383 | -0.23276 | 9956 ft | 275 kts | 94° |
| 2026-04-22 18:53 | 51.99343 | -0.20182 | 9825 ft | 274 kts | 94° |
| 2026-04-22 18:53 | 51.99302 | -0.17096 | 9693 ft | 274 kts | 93° |
| 2026-04-22 18:53 | 51.99261 | -0.14015 | 9563 ft | 274 kts | 93° |
| 2026-04-22 18:54 | 51.99220 | -0.10970 | 9434 ft | 273 kts | 94° |
| 2026-04-22 18:54 | 51.99177 | -0.07898 | 9305 ft | 272 kts | 94° |
| 2026-04-22 18:54 | 51.99135 | -0.04837 | 9176 ft | 271 kts | 93° |
| 2026-04-22 18:54 | 51.99093 | -0.01796 | 8989 ft | 266 kts | 94° |
| 2026-04-22 18:55 | 51.99058 | 0.01149 | 8788 ft | 257 kts | 92° |
| 2026-04-22 18:55 | 51.99438 | 0.03921 | 8586 ft | 254 kts | 63° |
| 2026-04-22 18:55 | 52.00686 | 0.05881 | 8368 ft | 254 kts | 28° |
| 2026-04-22 18:55 | 52.02415 | 0.06448 | 8077 ft | 257 kts | 5° |
| 2026-04-22 18:56 | 52.04201 | 0.06548 | 7779 ft | 256 kts | 4° |
| 2026-04-22 18:56 | 52.05979 | 0.06629 | 7473 ft | 255 kts | 4° |
| 2026-04-22 18:56 | 52.07749 | 0.06709 | 7180 ft | 254 kts | 5° |
| 2026-04-22 18:56 | 52.09515 | 0.06763 | 6889 ft | 254 kts | 359° |
| 2026-04-22 18:57 | 52.11179 | 0.05877 | 6564 ft | 257 kts | 324° |
| 2026-04-22 18:57 | 52.12283 | 0.03646 | 6197 ft | 256 kts | 289° |
| 2026-04-22 18:57 | 52.12469 | 0.00862 | 5828 ft | 243 kts | 255° |
| 2026-04-22 18:57 | 52.11791 | -0.01518 | 5483 ft | 226 kts | 223° |
| 2026-04-22 18:58 | 52.10591 | -0.02968 | 5130 ft | 209 kts | 195° |
| 2026-04-22 18:58 | 52.09527 | -0.03383 | 4847 ft | 199 kts | 182° |
| 2026-04-22 19:00 | 52.08616 | -0.03557 | 4619 ft | 195 kts | 181° |
| 2026-04-22 19:00 | 52.07284 | -0.03856 | 4303 ft | 191 kts | 182° |
| 2026-04-22 19:00 | 52.05990 | -0.04167 | 3934 ft | 185 kts | 182° |
| 2026-04-22 19:01 | 52.04730 | -0.04471 | 3576 ft | 182 kts | 182° |
| 2026-04-22 19:01 | 52.03482 | -0.04769 | 3218 ft | 181 kts | 180° |
| 2026-04-22 19:01 | 52.02240 | -0.05042 | 2999 ft | 179 kts | 176° |
| 2026-04-22 19:01 | 52.01018 | -0.04976 | 2846 ft | 173 kts | 164° |
| 2026-04-22 19:02 | 51.99859 | -0.04518 | 2708 ft | 171 kts | 155° |
| 2026-04-22 19:02 | 51.98725 | -0.03953 | 2624 ft | 170 kts | 155° |
| 2026-04-22 19:02 | 51.97607 | -0.03401 | 2610 ft | 170 kts | 156° |
| 2026-04-22 19:02 | 51.96456 | -0.02831 | 2610 ft | 171 kts | 156° |
| 2026-04-22 19:03 | 51.95317 | -0.02269 | 2605 ft | 171 kts | 156° |
| 2026-04-22 19:03 | 51.94193 | -0.01718 | 2610 ft | 171 kts | 156° |
| 2026-04-22 19:03 | 51.93035 | -0.01150 | 2606 ft | 172 kts | 156° |
| 2026-04-22 19:03 | 51.91905 | -0.00597 | 2605 ft | 172 kts | 156° |
| 2026-04-22 19:04 | 51.90759 | -0.00037 | 2602 ft | 172 kts | 157° |
| 2026-04-22 19:04 | 51.89610 | 0.00528 | 2608 ft | 172 kts | 156° |
| 2026-04-22 19:04 | 51.88467 | 0.01091 | 2604 ft | 171 kts | 157° |
| 2026-04-22 19:04 | 51.87327 | 0.01653 | 2614 ft | 172 kts | 157° |
| 2026-04-22 19:05 | 51.86179 | 0.02219 | 2612 ft | 173 kts | 156° |
| 2026-04-22 19:05 | 51.85024 | 0.02785 | 2610 ft | 173 kts | 157° |
| 2026-04-22 19:05 | 51.83872 | 0.03347 | 2607 ft | 173 kts | 157° |
| 2026-04-22 19:05 | 51.82720 | 0.03910 | 2615 ft | 173 kts | 157° |
| 2026-04-22 19:06 | 51.81566 | 0.04473 | 2612 ft | 173 kts | 156° |
| 2026-04-22 19:06 | 51.80453 | 0.05012 | 2610 ft | 163 kts | 155° |
| 2026-04-22 19:06 | 51.79519 | 0.05871 | 2608 ft | 150 kts | 128° |
| 2026-04-22 19:07 | 51.79078 | 0.08846 | 2609 ft | 139 kts | 76° |
| 2026-04-22 19:07 | 51.79597 | 0.10179 | 2524 ft | 145 kts | 50° |
| 2026-04-22 19:07 | 51.80336 | 0.11272 | 2373 ft | 141 kts | 49° |
| 2026-04-22 19:07 | 51.81049 | 0.12333 | 2188 ft | 138 kts | 50° |
| 2026-04-22 19:08 | 51.81756 | 0.13389 | 2007 ft | 139 kts | 49° |
| 2026-04-22 19:08 | 51.82470 | 0.14455 | 1815 ft | 141 kts | 49° |
| 2026-04-22 19:08 | 51.83185 | 0.15523 | 1623 ft | 139 kts | 47° |
| 2026-04-22 19:08 | 51.83896 | 0.16585 | 1427 ft | 140 kts | 49° |
| 2026-04-22 19:09 | 51.84607 | 0.17652 | 1231 ft | 140 kts | 47° |
| 2026-04-22 19:09 | 51.85317 | 0.18742 | 1032 ft | 142 kts | 45° |
| 2026-04-22 19:09 | 51.86052 | 0.19812 | 812 ft | 140 kts | 44° |
| 2026-04-22 19:09 | 51.86775 | 0.20867 | 606 ft | 142 kts | 43° |
| 2026-04-22 19:10 | 51.87493 | 0.21951 | 412 ft | 139 kts | 45° |
| 2026-04-22 19:10 | 51.88149 | 0.22953 | 335 ft | 110 kts | 44° |
| 2026-04-22 19:10 | 51.88627 | 0.23668 | 340 ft | 77 kts | 43° |
| 2026-04-22 19:10 | 51.88864 | 0.24115 | 352 ft | 41 kts | 67° |
| 2026-04-22 19:11 | 51.88912 | 0.24375 | 344 ft | 2 kts | 73° |
| 2026-04-22 19:11 | 51.88917 | 0.24404 | 348 ft | 4 kts | 73° |
| 2026-04-22 19:11 | 51.88919 | 0.24415 | 346 ft | 0 kts | 73° |
| 2026-04-22 19:11 | 51.88920 | 0.24422 | 351 ft | 4 kts | 75° |
| 2026-04-22 19:12 | 51.88914 | 0.24492 | 353 ft | 6 kts | 113° |
| 2026-04-22 19:12 | 51.88908 | 0.24506 | 350 ft | 0 kts | 132° |
| 2026-04-22 19:12 | 51.88858 | 0.24599 | 353 ft | 16 kts | 131° |
| 2026-04-22 19:12 | 51.88821 | 0.24709 | 349 ft | 13 kts | 86° |
| 2026-04-22 19:13 | 51.88889 | 0.24838 | 349 ft | 11 kts | 41° |
| 2026-04-22 19:13 | 51.88929 | 0.24896 | 349 ft | 0 kts | 41° |
| 2026-04-22 19:14 | 51.88931 | 0.24899 | 353 ft | 1 kts | 41° |
| 2026-04-22 19:14 | 51.88935 | 0.24904 | 353 ft | 1 kts | 41° |
| 2026-04-22 19:14 | 51.88943 | 0.24915 | 352 ft | 1 kts | 41° |
| 2026-04-22 19:14 | 51.88949 | 0.24923 | 349 ft | 1 kts | 40° |
| 2026-04-22 19:15 | 51.88956 | 0.24933 | 354 ft | 3 kts | 38° |
| 2026-04-22 19:15 | 51.88975 | 0.24954 | 349 ft | 2 kts | 32° |
| 2026-04-22 19:15 | 51.88994 | 0.24983 | 352 ft | 7 kts | 48° |
| 2026-04-22 19:15 | 51.89060 | 0.25099 | 358 ft | 17 kts | 44° |
| 2026-04-22 19:16 | 51.89151 | 0.25235 | 351 ft | 19 kts | 43° |
| 2026-04-22 19:16 | 51.89253 | 0.25386 | 351 ft | 21 kts | 42° |
| 2026-04-22 19:16 | 51.89332 | 0.25506 | 352 ft | 10 kts | 43° |
| 2026-04-22 19:16 | 51.89346 | 0.25527 | 357 ft | 3 kts | 46° |
| 2026-04-22 19:17 | 51.89347 | 0.25598 | 357 ft | 9 kts | 113° |
| 2026-04-22 19:17 | 51.89305 | 0.25682 | 351 ft | 10 kts | 133° |
| 2026-04-22 19:17 | 51.89260 | 0.25761 | 352 ft | 10 kts | 133° |
| 2026-04-22 19:17 | 51.89213 | 0.25841 | 353 ft | 10 kts | 133° |
| 2026-04-22 19:18 | 51.89169 | 0.25920 | 351 ft | 9 kts | 133° |
| 2026-04-22 19:18 | 51.89133 | 0.25952 | 349 ft | 5 kts | 194° |
| 2026-04-22 19:18 | 51.89128 | 0.25946 | 355 ft | 0 kts | 216° |
| 2026-04-22 19:18 | 51.89123 | 0.25933 | 353 ft | 2 kts | 230° |
| 2026-04-22 19:19 | 51.89108 | 0.25910 | 350 ft | 2 kts | 223° |
| 2026-04-22 19:19 | 51.89102 | 0.25900 | 355 ft | 1 kts | 225° |
| 2026-04-22 19:19 | 51.89097 | 0.25892 | 357 ft | 1 kts | 224° |
| 2026-04-22 19:19 | 51.89093 | 0.25886 | 358 ft | 1 kts | 223° |
| 2026-04-22 19:20 | 51.89089 | 0.25881 | 351 ft | 0 kts | 223° |